Hays Regional Airport Hays US
ICAO: KHYS
IATA: HYS
Category: Medium
Scheduled Services: No

Elevation: 1999 ft
TransAlt. 18000 ft.

Airport Communications:
AWOS 3:125.525
KANSAS CITY CNTR:124.4
WICHITA RDO:122.3
CTAF/UNICOM:122.8

KHYS Zoom In..

Runways:

(A) RW 04 length 4501 ft width 75 ft
---- / hdg 40

(B) RW 16 length 6501 ft width 100 ft
---- / hdg 159

(C) RW 22 length 4501 ft width 75 ft
---- / hdg 220

(D) RW 34 length 6501 ft width 100 ft
ILS 111.50 / hdg 339

Location; KHYS
Day. 21 / Time. 14.40 Zulu
* Altimeter: 30.13
* Temperature: 14° c. 57.2°f.
* Wind from: 190° Speed 09 kn.
Dewpoint: 12° c.
Visibility: 10 Statute Miles.
Clouds: Overcast 700 ft.

KHYS 211440Z AUTO 19009KT 10SM OVC007 14/12 A3013 RMK AO2


Wind From 190°
Speed 09 kn.

 
 
jpsmedia.com for Web Design SOUNDCLOUD worldairports.se 2018   terms of use